Browning, Montana
Current Conditions -  °F | °C
As of 9:56 PM on Friday 28 Nov 2014 (Local Time) from KCTB Reporting Station
Moderate Snow Moderate Snow  
Wind Chill: -32°   Ceiling: 700
Heat Index: -7°   Visibility: 0.5mi
Dew Point: -11°   Wind: 22mph
Humidity: 83%   Direction: 340°NNW
Pressure: 29.6"   Gusts: 26mph
Location:  48.56°N, 113.01°W
Report Text: KCTB 290456Z AUTO 34019G23KT 1/2SM SN FZFG VV007 M22/M24 A2960 RMK AO2 SLP069 P0000 T12171239
Loading
Personal Weather Stations






























Interactive Weather Map New forecast layout! Learn more

10-Day Weather Forecast

Advertisements
Track Severe Weather on mobile